Terminal Aerodrome Forecast
Issued by NWS

Home | Current Version | Previous Version | Text Only | Print | Product List | Glossary On
Versions: 1 2 3 4 5 6 7 8 9 10 11 12 13 14 15
000
FTUS41 KGYX 252320
TAFHIE
TAF
KHIE 252320Z 2600/2624 11004KT P6SM -RA OVC035
     FM260700 00000KT P6SM OVC015
     FM260900 00000KT 4SM -DZ BR OVC007
     FM261200 00000KT 6SM -SHRA OVC015
     FM261400 28008KT P6SM OVC035=

USA.gov is the U.S. government's official web portal to all federal, state and local government web resources and services.